Time;durP1;ratioP1;P1;durP2;ratioP2;P2;SDS_P1;SDS_P2;PMS_P1;PMS_P2;Temp;Humidity;BMP_temperature;BMP_pressure;BME280_temperature;BME280_humidity;BME280_pressure;Samples;Min_cycle;Max_cycle;Signal;HPM_P1;HPM_P2
2022/12/03 07:14:27;;;;;;;36.27;17.03;;;6.60;75.40;;;;;;4990423;28;20235;-96
2022/12/03 07:16:54;;;;;;;33.43;16.60;;;6.60;74.90;;;;;;4995412;28;20216;-96
2022/12/03 07:19:21;;;;;;;32.60;16.67;;;6.60;74.90;;;;;;4991243;28;20275;-96
2022/12/03 07:21:48;;;;;;;31.63;15.50;;;6.60;74.90;;;;;;4993559;28;20276;-96
2022/12/03 07:24:18;;;;;;;33.97;16.97;;;6.60;74.90;;;;;;4995075;28;20253;-96
2022/12/03 07:26:47;;;;;;;31.87;15.47;;;6.60;74.80;;;;;;4995732;28;20233;-96
2022/12/03 07:29:17;;;;;;;33.07;16.50;;;6.60;74.90;;;;;;4990309;28;20232;-96
2022/12/03 07:31:48;;;;;;;34.93;16.77;;;6.60;75.00;;;;;;4983050;28;20312;-95
2022/12/03 07:34:15;;;;;;;33.70;17.17;;;6.60;75.10;;;;;;4981142;28;20665;-96
2022/12/03 07:36:43;;;;;;;47.00;19.77;;;6.60;75.20;;;;;;4987341;28;20266;-96
2022/12/03 07:39:10;;;;;;;35.03;16.83;;;6.60;75.00;;;;;;4984795;28;20286;-95
2022/12/03 07:41:37;;;;;;;33.37;16.77;;;6.60;74.90;;;;;;4989664;28;20238;-96
2022/12/03 07:44:05;;;;;;;31.00;16.17;;;6.60;74.90;;;;;;4980145;28;20230;-96
2022/12/03 07:46:34;;;;;;;32.43;17.00;;;6.60;74.90;;;;;;4989884;28;20893;-95
2022/12/03 07:49:03;;;;;;;37.77;16.90;;;6.60;74.90;;;;;;4989069;28;20795;-96
2022/12/03 07:51:31;;;;;;;36.83;16.90;;;6.60;74.90;;;;;;4989581;28;20203;-96
2022/12/03 07:54:04;;;;;;;30.73;16.33;;;6.60;74.80;;;;;;4990228;28;20309;-95
2022/12/03 07:56:31;;;;;;;34.83;16.93;;;6.60;75.00;;;;;;4971923;28;20246;-95
2022/12/03 07:59:00;;;;;;;28.23;14.57;;;6.60;75.10;;;;;;4979011;28;20226;-96
2022/12/03 08:01:33;;;;;;;31.30;16.03;;;6.60;75.10;;;;;;4990151;28;20222;-96
2022/12/03 08:04:03;;;;;;;33.60;16.43;;;6.60;75.00;;;;;;4978200;28;20242;-95
2022/12/03 08:06:30;;;;;;;31.80;16.47;;;6.60;74.90;;;;;;4974858;28;20216;-95
2022/12/03 08:08:58;;;;;;;31.93;16.60;;;6.60;74.90;;;;;;4972944;28;20203;-96
2022/12/03 08:11:28;;;;;;;33.77;16.07;;;6.60;74.90;;;;;;4973838;28;20263;-96
2022/12/03 08:13:57;;;;;;;28.90;15.93;;;6.60;75.00;;;;;;4970323;28;20590;-96
2022/12/03 08:16:24;;;;;;;34.90;18.37;;;6.60;75.20;;;;;;4987764;28;20223;-95
2022/12/03 08:18:56;;;;;;;35.03;17.27;;;6.60;75.20;;;;;;4978563;28;20204;-95
2022/12/03 08:21:28;;;;;;;39.83;17.13;;;6.60;75.00;;;;;;4988757;28;20211;-96
2022/12/03 08:24:11;;;;;;;33.90;16.80;;;6.60;75.00;;;;;;4967783;28;20219;-96
2022/12/03 08:26:39;;;;;;;37.93;17.97;;;6.70;75.30;;;;;;4977823;28;20550;-95
2022/12/03 08:30:06;;;;;;;29.20;14.97;;;6.60;75.20;;;;;;5004917;28;20242;-96
2022/12/03 13:38:00;;;;;;;36.20;18.93;;;7.30;72.80;;;;;;5707736;23;20266;-96
2022/12/03 13:40:33;;;;;;;32.93;18.17;;;7.30;72.50;;;;;;4980267;28;20715;-96
2022/12/03 13:43:04;;;;;;;40.60;19.93;;;7.30;72.70;;;;;;4982804;28;20222;-96
2022/12/03 13:45:41;;;;;;;36.77;20.67;;;7.30;72.80;;;;;;4983812;28;20327;-96
2022/12/03 13:48:27;;;;;;;34.40;18.83;;;7.30;72.30;;;;;;4982945;28;20306;-96
2022/12/03 13:50:54;;;;;;;33.93;19.63;;;7.30;72.30;;;;;;4980062;28;20272;-96
2022/12/03 13:59:53;;;;;;;35.37;17.83;;;7.20;72.30;;;;;;5284768;23;20614;-96
2022/12/03 14:02:25;;;;;;;36.53;19.93;;;7.20;72.30;;;;;;5004505;28;20200;-96
2022/12/03 14:04:54;;;;;;;41.77;20.70;;;7.20;72.70;;;;;;5003306;28;20208;-96
2022/12/03 14:07:24;;;;;;;38.40;19.77;;;7.20;72.40;;;;;;4996605;28;20244;-96
2022/12/03 14:13:25;;;;;;;38.83;20.73;;;7.20;72.20;;;;;;4989833;28;20240;-96
2022/12/03 14:16:26;;;;;;;33.77;18.93;;;7.20;72.50;;;;;;4988660;28;20227;-96
2022/12/03 14:25:40;;;;;;;33.73;18.47;;;7.20;72.70;;;;;;5005314;28;20213;-95
2022/12/03 14:28:22;;;;;;;33.50;18.40;;;7.20;72.70;;;;;;5007919;28;20233;-96
2022/12/03 14:40:21;;;;;;;30.23;16.57;;;7.20;72.80;;;;;;5009398;28;20275;-96
2022/12/03 15:28:55;;;;;;;37.43;17.90;;;7.00;72.50;;;;;;4966848;28;20865;-96
2022/12/03 15:38:56;;;;;;;30.10;17.27;;;7.00;72.60;;;;;;4974303;28;20210;-96
2022/12/03 23:29:00;;;;;;;41.37;19.97;;;6.10;74.30;;;;;;5014861;23;20531;-96
2022/12/03 23:34:55;;;;;;;42.40;19.17;;;6.10;74.30;;;;;;4980314;28;20232;-96
2022/12/03 23:44:19;;;;;;;37.97;18.63;;;6.20;74.40;;;;;;4961841;29;20241;-96
2022/12/03 23:47:51;;;;;;;48.97;20.37;;;6.20;74.40;;;;;;4960814;29;20196;-96
2022/12/03 23:50:36;;;;;;;45.37;20.33;;;6.20;74.40;;;;;;5194066;23;20264;-96
2022/12/03 23:56:38;;;;;;;37.93;18.97;;;6.30;74.20;;;;;;4970425;29;20195;-96
